Time;durP1;ratioP1;P1;durP2;ratioP2;P2;SDS_P1;SDS_P2;PMS_P1;PMS_P2;Temp;Humidity;BMP_temperature;BMP_pressure;BME280_temperature;BME280_humidity;BME280_pressure;Samples;Min_cycle;Max_cycle;Signal;HPM_P1;HPM_P2
2022/12/07 00:01:19;;;;;;;;;;;18.70;67.90;;;;;;4431264;32;20011;-77
2022/12/07 00:03:46;;;;;;;;;;;18.60;67.90;;;;;;4430971;32;19989;-77
2022/12/07 00:06:12;;;;;;;;;;;18.60;67.90;;;;;;4430917;32;20387;-77
2022/12/07 00:08:38;;;;;;;;;;;18.60;67.90;;;;;;4416557;32;20040;-77
2022/12/07 00:11:09;;;;;;;;;;;18.60;67.90;;;;;;4430365;32;20029;-77
2022/12/07 00:13:35;;;;;;;;;;;18.60;67.90;;;;;;4430948;32;20052;-78
2022/12/07 00:16:08;;;;;;;;;;;18.60;67.90;;;;;;4431113;32;20081;-77
2022/12/07 00:18:33;;;;;;;;;;;18.60;67.90;;;;;;4430715;32;19990;-78
2022/12/07 00:21:25;;;;;;;;;;;18.50;67.80;;;;;;4430860;32;19982;-77
2022/12/07 00:23:51;;;;;;;;;;;18.60;68.00;;;;;;4427613;32;19971;-77
2022/12/07 00:26:18;;;;;;;;;;;18.50;67.90;;;;;;4430929;32;20034;-77
2022/12/07 00:28:45;;;;;;;;;;;18.50;67.90;;;;;;4430717;32;20013;-77
2022/12/07 00:31:12;;;;;;;;;;;18.50;67.90;;;;;;4430867;32;20022;-77
2022/12/07 00:33:38;;;;;;;;;;;18.50;67.90;;;;;;4429557;32;20029;-77
2022/12/07 00:36:06;;;;;;;;;;;18.50;67.90;;;;;;4430221;32;20045;-77
2022/12/07 00:38:32;;;;;;;;;;;18.50;67.90;;;;;;4430677;32;19978;-77
2022/12/07 00:41:00;;;;;;;;;;;18.50;67.80;;;;;;4430655;32;19979;-77
2022/12/07 00:43:26;;;;;;;;;;;18.40;67.80;;;;;;4430374;32;19974;-77
2022/12/07 00:45:52;;;;;;;;;;;18.40;67.70;;;;;;4430459;32;20316;-77
2022/12/07 00:48:18;;;;;;;;;;;18.40;67.90;;;;;;4430350;32;19991;-77
2022/12/07 00:50:44;;;;;;;;;;;18.40;67.90;;;;;;4430568;32;20050;-78
2022/12/07 00:53:10;;;;;;;;;;;18.40;67.80;;;;;;4429202;32;20018;-77
2022/12/07 00:55:36;;;;;;;;;;;18.40;67.80;;;;;;4430466;32;20033;-78
2022/12/07 00:58:02;;;;;;;;;;;18.40;67.80;;;;;;4416669;32;20041;-77
2022/12/07 01:00:28;;;;;;;;;;;18.40;67.70;;;;;;4430245;32;20014;-78
2022/12/07 01:02:53;;;;;;;;;;;18.40;67.80;;;;;;4430389;32;20352;-77
2022/12/07 01:05:19;;;;;;;;;;;18.40;67.70;;;;;;4415945;32;19962;-77
2022/12/07 01:07:46;;;;;;;;;;;18.40;67.80;;;;;;4430358;32;19963;-77
2022/12/07 01:10:12;;;;;;;;;;;18.30;67.70;;;;;;4430022;32;20073;-77
2022/12/07 01:12:38;;;;;;;;;;;18.30;67.70;;;;;;4428985;32;19998;-77
2022/12/07 01:15:04;;;;;;;;;;;18.30;67.70;;;;;;4430200;32;19986;-77
2022/12/07 01:17:30;;;;;;;;;;;18.30;67.70;;;;;;4430343;32;20451;-77
2022/12/07 01:19:55;;;;;;;;;;;18.30;67.60;;;;;;4429996;32;19979;-77
2022/12/07 01:22:21;;;;;;;;;;;18.30;67.60;;;;;;4429853;32;19978;-77
2022/12/07 01:24:47;;;;;;;;;;;18.30;67.70;;;;;;4430008;32;20093;-77
2022/12/07 01:27:13;;;;;;;;;;;18.30;67.70;;;;;;4415993;32;19963;-77
2022/12/07 01:29:39;;;;;;;;;;;18.30;67.60;;;;;;4430088;32;20305;-77
2022/12/07 01:32:05;;;;;;;;;;;18.30;67.70;;;;;;4429904;32;19988;-77
2022/12/07 01:34:30;;;;;;;;;;;18.20;67.60;;;;;;4430140;32;19990;-77
2022/12/07 01:36:56;;;;;;;;;;;18.20;67.60;;;;;;4429711;32;19971;-77
2022/12/07 01:39:22;;;;;;;;;;;18.20;67.60;;;;;;4429722;32;20497;-78
2022/12/07 01:41:49;;;;;;;;;;;18.20;67.60;;;;;;4429923;32;19975;-77
2022/12/07 01:44:22;;;;;;;;;;;18.20;67.50;;;;;;4429950;32;19986;-77
2022/12/07 01:46:47;;;;;;;;;;;18.20;67.60;;;;;;4429535;32;20034;-77
2022/12/07 01:49:15;;;;;;;;;;;18.20;67.60;;;;;;4429742;32;20294;-77
2022/12/07 01:51:42;;;;;;;;;;;18.20;67.60;;;;;;4429676;32;19987;-77
2022/12/07 01:54:09;;;;;;;;;;;18.20;67.60;;;;;;4429820;32;20032;-77
2022/12/07 01:56:35;;;;;;;;;;;18.20;67.60;;;;;;4429613;32;19989;-78
2022/12/07 01:59:01;;;;;;;;;;;18.20;67.60;;;;;;4429679;32;19979;-77
2022/12/07 02:01:27;;;;;;;;;;;18.20;68.50;;;;;;4429896;32;20332;-78
2022/12/07 02:03:53;;;;;;;;;;;18.20;67.60;;;;;;4429641;32;20053;-77
2022/12/07 02:06:22;;;;;;;;;;;18.10;67.60;;;;;;4429405;32;20381;-77
2022/12/07 02:08:48;;;;;;;;;;;18.10;67.50;;;;;;4429506;32;20149;-77
2022/12/07 02:11:15;;;;;;;;;;;18.10;67.60;;;;;;4429419;32;19971;-77
2022/12/07 02:13:42;;;;;;;;;;;18.10;67.60;;;;;;4429379;32;20029;-78
2022/12/07 02:16:20;;;;;;;;;;;18.10;67.60;;;;;;4429609;32;20018;-77
2022/12/07 02:18:46;;;;;;;;;;;18.10;67.60;;;;;;4429472;32;20385;-77
2022/12/07 02:21:38;;;;;;;;;;;18.10;67.60;;;;;;4429723;32;19986;-77
2022/12/07 02:24:22;;;;;;;;;;;18.10;67.60;;;;;;4426287;32;20105;-77
2022/12/07 02:26:59;;;;;;;;;;;18.10;67.60;;;;;;4429394;32;20035;-77
2022/12/07 02:29:27;;;;;;;;;;;18.10;67.60;;;;;;4429624;32;20418;-78
2022/12/07 02:32:03;;;;;;;;;;;18.00;67.50;;;;;;4429491;32;20003;-77
2022/12/07 02:34:37;;;;;;;;;;;18.00;67.50;;;;;;4432171;32;19978;-78
2022/12/07 02:37:08;;;;;;;;;;;18.00;67.50;;;;;;4432373;32;20034;-77
2022/12/07 02:39:41;;;;;;;;;;;18.00;67.50;;;;;;4432227;32;19985;-77
2022/12/07 02:42:12;;;;;;;;;;;18.00;67.50;;;;;;4432699;32;20018;-77
2022/12/07 02:44:37;;;;;;;;;;;18.00;67.50;;;;;;4432395;32;19971;-77
2022/12/07 02:47:05;;;;;;;;;;;18.00;67.50;;;;;;4432322;32;19975;-77
2022/12/07 02:49:31;;;;;;;;;;;18.00;67.40;;;;;;4432247;32;19986;-77
2022/12/07 02:51:57;;;;;;;;;;;18.00;67.40;;;;;;4432034;32;20380;-77
2022/12/07 02:54:23;;;;;;;;;;;18.00;67.40;;;;;;4432064;32;19967;-77
2022/12/07 02:56:50;;;;;;;;;;;18.00;67.40;;;;;;4432424;32;19986;-77
2022/12/07 02:59:22;;;;;;;;;;;18.00;67.40;;;;;;4433279;32;19985;-76
2022/12/07 03:01:54;;;;;;;;;;;17.90;67.40;;;;;;4433207;32;20039;-77
2022/12/07 03:04:38;;;;;;;;;;;17.90;67.40;;;;;;4433635;32;19967;-77
2022/12/07 03:07:10;;;;;;;;;;;17.90;67.30;;;;;;4432438;32;20056;-77
2022/12/07 03:09:40;;;;;;;;;;;17.90;67.30;;;;;;4432913;32;20057;-77
2022/12/07 03:12:12;;;;;;;;;;;17.90;68.20;;;;;;4418311;32;19990;-77
2022/12/07 03:14:45;;;;;;;;;;;17.90;67.40;;;;;;4432706;32;20129;-77
2022/12/07 03:17:19;;;;;;;;;;;17.80;67.40;;;;;;4433257;32;20057;-77
2022/12/07 03:19:46;;;;;;;;;;;17.90;67.40;;;;;;4433011;32;20007;-77
2022/12/07 03:22:12;;;;;;;;;;;17.90;67.40;;;;;;4432475;32;19987;-77
2022/12/07 03:24:48;;;;;;;;;;;17.90;67.40;;;;;;4432655;32;20026;-77
2022/12/07 03:27:22;;;;;;;;;;;17.80;67.40;;;;;;4432369;32;20423;-77
2022/12/07 03:29:51;;;;;;;;;;;17.80;67.30;;;;;;4432910;32;20023;-77
2022/12/07 03:32:24;;;;;;;;;;;17.80;67.30;;;;;;4432722;32;20026;-77
2022/12/07 03:34:56;;;;;;;;;;;17.80;67.30;;;;;;4432667;32;20195;-77
2022/12/07 03:37:51;;;;;;;;;;;17.80;67.30;;;;;;4432212;32;20381;-77
2022/12/07 03:40:23;;;;;;;;;;;17.80;67.30;;;;;;4409465;32;19997;-77
2022/12/07 03:42:50;;;;;;;;;;;17.80;67.30;;;;;;4432268;32;19990;-77
2022/12/07 03:45:16;;;;;;;;;;;17.80;67.30;;;;;;4432802;32;19983;-77
2022/12/07 03:48:02;;;;;;;;;;;17.70;67.20;;;;;;4432740;32;20080;-77
2022/12/07 03:50:46;;;;;;;;;;;17.80;67.30;;;;;;4422376;32;20499;-77
2022/12/07 03:53:18;;;;;;;;;;;17.70;67.20;;;;;;4431053;32;19983;-77
2022/12/07 03:55:45;;;;;;;;;;;17.70;67.20;;;;;;4416853;32;19979;-77
2022/12/07 03:58:13;;;;;;;;;;;17.70;67.20;;;;;;4431176;32;19982;-77
2022/12/07 04:00:40;;;;;;;;;;;17.70;67.20;;;;;;4431239;32;19986;-77
2022/12/07 04:03:06;;;;;;;;;;;17.70;67.20;;;;;;4431100;32;19982;-77
2022/12/07 04:05:31;;;;;;;;;;;17.70;67.20;;;;;;4429598;32;19971;-77
2022/12/07 04:07:57;;;;;;;;;;;17.70;67.20;;;;;;4431178;32;20052;-77
2022/12/07 04:10:22;;;;;;;;;;;17.70;67.20;;;;;;4416983;32;20048;-77
2022/12/07 04:12:48;;;;;;;;;;;17.70;67.20;;;;;;4430854;32;19989;-78
2022/12/07 04:15:14;;;;;;;;;;;17.70;67.20;;;;;;4431136;32;19979;-77
2022/12/07 04:17:39;;;;;;;;;;;17.70;67.20;;;;;;4430873;32;20281;-77
2022/12/07 04:20:06;;;;;;;;;;;17.70;67.20;;;;;;4430963;32;19974;-77
2022/12/07 04:22:32;;;;;;;;;;;17.70;67.20;;;;;;4430941;32;20113;-77
2022/12/07 04:24:57;;;;;;;;;;;17.70;67.20;;;;;;4416981;32;20454;-77
2022/12/07 04:27:23;;;;;;;;;;;17.70;67.30;;;;;;4430698;32;20125;-77
2022/12/07 04:29:49;;;;;;;;;;;17.60;67.20;;;;;;4430970;32;20014;-78
2022/12/07 04:32:14;;;;;;;;;;;17.60;67.20;;;;;;4430729;32;20411;-77
2022/12/07 04:34:40;;;;;;;;;;;17.60;67.20;;;;;;4430563;32;19977;-77
2022/12/07 04:37:06;;;;;;;;;;;17.60;67.20;;;;;;4430426;32;19981;-77
2022/12/07 04:39:32;;;;;;;;;;;17.60;67.20;;;;;;4416747;32;19983;-77
2022/12/07 04:41:59;;;;;;;;;;;17.60;67.20;;;;;;4430722;32;20022;-77
2022/12/07 04:44:26;;;;;;;;;;;17.60;67.20;;;;;;4430560;32;20393;-78
2022/12/07 04:46:52;;;;;;;;;;;17.60;67.20;;;;;;4430598;32;19989;-77
2022/12/07 04:49:18;;;;;;;;;;;17.60;67.20;;;;;;4430532;32;20015;-77
2022/12/07 04:51:44;;;;;;;;;;;17.50;67.10;;;;;;4430395;32;20031;-77
2022/12/07 04:54:10;;;;;;;;;;;17.50;67.10;;;;;;4430530;32;19993;-77
2022/12/07 04:56:35;;;;;;;;;;;17.50;67.10;;;;;;4429824;32;20440;-77
2022/12/07 04:59:02;;;;;;;;;;;17.50;67.10;;;;;;4430349;32;19971;-77
2022/12/07 05:01:27;;;;;;;;;;;17.50;67.10;;;;;;4429998;32;20092;-77
2022/12/07 05:03:53;;;;;;;;;;;17.50;67.10;;;;;;4430456;32;19978;-78
2022/12/07 05:06:19;;;;;;;;;;;17.50;67.10;;;;;;4429990;32;19971;-77
2022/12/07 05:08:44;;;;;;;;;;;17.50;68.00;;;;;;4416283;32;19975;-77
2022/12/07 05:11:37;;;;;;;;;;;17.50;67.20;;;;;;4430222;32;19998;-77
2022/12/07 05:14:00;;;;;;;;;;;17.50;67.10;;;;;;4430016;32;20460;-77
2022/12/07 05:16:25;;;;;;;;;;;17.50;67.20;;;;;;4430393;32;20531;-77
2022/12/07 05:18:51;;;;;;;;;;;17.50;67.10;;;;;;4429947;32;19978;-77
2022/12/07 05:21:17;;;;;;;;;;;17.50;67.10;;;;;;4430262;32;19993;-77
2022/12/07 05:23:42;;;;;;;;;;;17.50;67.20;;;;;;4416129;32;19987;-77
2022/12/07 05:26:08;;;;;;;;;;;17.40;68.00;;;;;;4430108;32;20003;-77
2022/12/07 05:28:33;;;;;;;;;;;17.40;67.20;;;;;;4430115;32;20488;-77
2022/12/07 05:30:59;;;;;;;;;;;17.40;67.20;;;;;;4416013;32;20496;-77
2022/12/07 05:33:25;;;;;;;;;;;17.40;67.20;;;;;;4430139;32;19987;-77
2022/12/07 05:35:51;;;;;;;;;;;17.40;67.20;;;;;;4429501;32;19990;-78
2022/12/07 05:38:17;;;;;;;;;;;17.40;67.20;;;;;;4416266;32;19967;-77
2022/12/07 05:40:42;;;;;;;;;;;17.40;67.20;;;;;;4429823;32;19986;-77
2022/12/07 05:43:08;;;;;;;;;;;17.40;67.20;;;;;;4429835;32;20013;-77
2022/12/07 05:45:34;;;;;;;;;;;17.40;67.20;;;;;;4429886;32;19974;-77
2022/12/07 05:48:00;;;;;;;;;;;17.40;67.20;;;;;;4429672;32;19971;-77
2022/12/07 05:50:27;;;;;;;;;;;17.40;67.20;;;;;;4429955;32;20048;-77
2022/12/07 05:52:53;;;;;;;;;;;17.40;67.20;;;;;;4429705;32;20188;-77
2022/12/07 05:55:19;;;;;;;;;;;17.30;67.20;;;;;;4430025;32;19998;-77
2022/12/07 05:59:22;;;;;;;;;;;17.40;67.30;;;;;;4429718;32;19978;-77
2022/12/07 06:00:30;;;;;;;;;;;17.30;67.20;;;;;;4429941;32;19971;-77
2022/12/07 06:02:56;;;;;;;;;;;17.30;67.20;;;;;;4429628;32;20073;-77
2022/12/07 06:05:21;;;;;;;;;;;17.30;67.30;;;;;;4429572;32;19979;-77
2022/12/07 06:07:47;;;;;;;;;;;17.30;67.20;;;;;;4431703;32;19985;-77
2022/12/07 06:10:13;;;;;;;;;;;17.30;67.30;;;;;;4418805;32;20041;-77
2022/12/07 06:12:42;;;;;;;;;;;17.30;67.20;;;;;;4418926;32;20153;-77
2022/12/07 06:15:08;;;;;;;;;;;17.30;67.20;;;;;;4432689;32;20482;-77
2022/12/07 06:17:34;;;;;;;;;;;17.30;67.30;;;;;;4432811;32;20097;-77
2022/12/07 06:19:59;;;;;;;;;;;17.20;67.30;;;;;;4432713;32;20293;-77
2022/12/07 06:22:25;;;;;;;;;;;17.20;67.20;;;;;;4418740;32;19967;-77
2022/12/07 06:24:51;;;;;;;;;;;17.20;67.20;;;;;;4432755;32;20395;-77
2022/12/07 06:27:17;;;;;;;;;;;17.20;67.20;;;;;;4432437;32;20116;-77
2022/12/07 06:29:43;;;;;;;;;;;17.20;67.30;;;;;;4418852;32;19971;-77
2022/12/07 06:32:08;;;;;;;;;;;17.20;67.30;;;;;;4432580;32;20050;-77
2022/12/07 06:34:34;;;;;;;;;;;17.20;67.30;;;;;;4432644;32;20029;-77
2022/12/07 06:37:00;;;;;;;;;;;17.20;67.30;;;;;;4432203;32;19967;-77
2022/12/07 06:39:27;;;;;;;;;;;17.20;67.30;;;;;;4432370;32;19978;-77
2022/12/07 06:41:53;;;;;;;;;;;17.20;67.30;;;;;;4431302;32;20120;-77
2022/12/07 06:44:19;;;;;;;;;;;17.20;67.30;;;;;;4432263;32;19987;-77
2022/12/07 06:46:46;;;;;;;;;;;17.20;67.40;;;;;;4432339;32;19992;-77
2022/12/07 06:49:12;;;;;;;;;;;17.10;67.30;;;;;;4432226;32;20340;-77
2022/12/07 06:51:40;;;;;;;;;;;17.20;67.30;;;;;;4432468;32;19971;-77
2022/12/07 06:54:10;;;;;;;;;;;17.10;67.30;;;;;;4432058;32;20005;-78
2022/12/07 06:56:36;;;;;;;;;;;17.10;67.30;;;;;;4418313;32;20050;-77
2022/12/07 06:59:03;;;;;;;;;;;17.10;67.30;;;;;;4432276;32;19978;-77
2022/12/07 07:01:28;;;;;;;;;;;17.10;67.30;;;;;;4431864;32;20022;-77
2022/12/07 07:03:54;;;;;;;;;;;17.10;67.30;;;;;;4432168;32;20325;-78
2022/12/07 07:06:20;;;;;;;;;;;17.10;67.30;;;;;;4431698;32;19975;-77
2022/12/07 07:08:45;;;;;;;;;;;17.10;67.30;;;;;;4431864;32;20001;-77
2022/12/07 07:11:11;;;;;;;;;;;17.10;67.30;;;;;;4432153;32;19990;-77
2022/12/07 07:13:38;;;;;;;;;;;17.10;67.30;;;;;;4431448;32;20514;-77
2022/12/07 07:16:04;;;;;;;;;;;17.10;67.30;;;;;;4431978;32;19989;-77
2022/12/07 07:18:29;;;;;;;;;;;17.10;67.30;;;;;;4431269;32;20014;-77
2022/12/07 07:20:55;;;;;;;;;;;17.10;67.30;;;;;;4432156;32;20492;-77
2022/12/07 07:23:21;;;;;;;;;;;17.10;67.40;;;;;;4432088;32;19975;-77
2022/12/07 07:25:47;;;;;;;;;;;17.10;67.40;;;;;;4431458;32;19982;-77
2022/12/07 07:28:13;;;;;;;;;;;17.00;67.30;;;;;;4417932;32;20018;-77
2022/12/07 07:30:38;;;;;;;;;;;17.00;67.30;;;;;;4431555;32;20006;-77
2022/12/07 07:33:04;;;;;;;;;;;17.00;67.40;;;;;;4431767;32;19977;-76
2022/12/07 07:35:31;;;;;;;;;;;17.00;67.40;;;;;;4431591;32;20121;-76
2022/12/07 07:37:56;;;;;;;;;;;17.00;67.30;;;;;;4431630;32;20324;-77
2022/12/07 07:40:22;;;;;;;;;;;17.00;67.40;;;;;;4417886;32;20618;-76
2022/12/07 07:42:51;;;;;;;;;;;17.00;67.40;;;;;;4431347;32;19991;-76
2022/12/07 07:45:18;;;;;;;;;;;17.00;67.30;;;;;;4431426;32;20414;-75
2022/12/07 07:47:44;;;;;;;;;;;17.00;68.20;;;;;;4431357;32;20408;-76
2022/12/07 07:50:10;;;;;;;;;;;17.00;67.30;;;;;;4431282;32;19991;-76
2022/12/07 07:52:36;;;;;;;;;;;17.00;67.40;;;;;;4431372;32;20173;-76
2022/12/07 07:55:02;;;;;;;;;;;17.00;67.40;;;;;;4431330;32;20390;-77
2022/12/07 07:57:28;;;;;;;;;;;17.00;67.40;;;;;;4431461;32;20397;-76
2022/12/07 07:59:53;;;;;;;;;;;17.00;67.30;;;;;;4429971;32;20045;-77
2022/12/07 08:02:20;;;;;;;;;;;17.00;67.20;;;;;;4431344;32;19978;-76
2022/12/07 08:04:46;;;;;;;;;;;17.00;67.20;;;;;;4431370;32;19983;-76
2022/12/07 08:07:12;;;;;;;;;;;17.00;67.20;;;;;;4430946;32;20046;-76
2022/12/07 08:09:38;;;;;;;;;;;17.00;67.00;;;;;;4431211;32;20026;-76
2022/12/07 08:12:04;;;;;;;;;;;17.10;67.00;;;;;;4430686;32;20351;-77
2022/12/07 08:14:29;;;;;;;;;;;17.10;66.90;;;;;;4431146;32;19979;-76
2022/12/07 08:16:55;;;;;;;;;;;17.10;66.90;;;;;;4430943;32;20055;-78
2022/12/07 08:19:21;;;;;;;;;;;17.10;66.80;;;;;;4431331;32;20049;-77
2022/12/07 08:21:47;;;;;;;;;;;17.10;66.70;;;;;;4431006;32;19975;-78
2022/12/07 08:24:13;;;;;;;;;;;17.20;66.70;;;;;;4431031;32;20006;-77
2022/12/07 08:26:39;;;;;;;;;;;17.30;66.60;;;;;;4430942;32;20018;-77
2022/12/07 08:29:04;;;;;;;;;;;17.40;66.60;;;;;;4430635;32;20464;-76
2022/12/07 08:31:30;;;;;;;;;;;17.40;66.30;;;;;;4430187;32;19979;-75
2022/12/07 08:33:56;;;;;;;;;;;17.50;66.20;;;;;;4430604;32;20049;-76
2022/12/07 08:36:22;;;;;;;;;;;17.60;66.10;;;;;;4430519;32;19979;-75
2022/12/07 08:38:48;;;;;;;;;;;17.60;65.90;;;;;;4430567;32;19978;-76
2022/12/07 08:41:14;;;;;;;;;;;17.70;65.70;;;;;;4430841;32;19987;-75
2022/12/07 08:43:40;;;;;;;;;;;17.80;65.60;;;;;;4416732;32;20524;-75
2022/12/07 08:46:09;;;;;;;;;;;17.90;65.40;;;;;;4430126;32;19983;-74
2022/12/07 08:50:42;;;;;;;;;;;18.00;65.20;;;;;;4566342;31;20020;-75
2022/12/07 08:53:08;;;;;;;;;;;18.20;64.90;;;;;;4560586;31;20154;-74
2022/12/07 08:55:34;;;;;;;;;;;18.20;64.60;;;;;;4546231;31;20016;-77
2022/12/07 08:58:00;;;;;;;;;;;18.40;64.40;;;;;;4560077;31;20055;-77
2022/12/07 09:00:26;;;;;;;;;;;18.50;64.10;;;;;;4545899;31;20086;-76
2022/12/07 09:02:52;;;;;;;;;;;18.60;63.90;;;;;;4535790;31;20035;-74
2022/12/07 09:05:18;;;;;;;;;;;18.70;63.70;;;;;;4547550;31;20028;-75
2022/12/07 09:07:45;;;;;;;;;;;18.80;63.60;;;;;;4560429;31;20094;-76
2022/12/07 09:10:11;;;;;;;;;;;18.80;63.50;;;;;;4560051;31;20020;-76
2022/12/07 09:12:37;;;;;;;;;;;18.80;63.30;;;;;;4560384;31;20035;-75
2022/12/07 09:15:03;;;;;;;;;;;18.90;63.30;;;;;;4560045;31;20015;-75
2022/12/07 09:17:31;;;;;;;;;;;18.90;63.30;;;;;;4554660;31;20046;-76
2022/12/07 09:19:57;;;;;;;;;;;18.90;63.40;;;;;;4545644;31;20028;-76
2022/12/07 09:22:22;;;;;;;;;;;18.80;63.30;;;;;;4547613;31;20098;-75
2022/12/07 09:24:48;;;;;;;;;;;18.80;63.30;;;;;;4532873;31;20373;-76
2022/12/07 09:27:14;;;;;;;;;;;18.80;63.40;;;;;;4548965;31;20054;-75
2022/12/07 09:29:40;;;;;;;;;;;18.80;63.50;;;;;;4533054;31;20147;-76
2022/12/07 09:32:05;;;;;;;;;;;18.80;63.50;;;;;;4546789;31;20142;-74
2022/12/07 09:34:31;;;;;;;;;;;18.80;63.50;;;;;;4526021;31;20021;-75
2022/12/07 09:36:57;;;;;;;;;;;18.80;63.50;;;;;;4545404;31;20441;-74
2022/12/07 09:39:23;;;;;;;;;;;18.80;63.40;;;;;;4536823;31;20036;-74
2022/12/07 09:41:49;;;;;;;;;;;18.80;63.50;;;;;;4547071;31;20016;-74
2022/12/07 09:44:19;;;;;;;;;;;18.80;63.40;;;;;;4540039;31;20013;-75
2022/12/07 09:46:45;;;;;;;;;;;18.90;63.50;;;;;;4551535;31;20040;-77
2022/12/07 09:49:13;;;;;;;;;;;18.90;63.50;;;;;;4547308;31;20558;-73
2022/12/07 09:51:38;;;;;;;;;;;18.80;63.50;;;;;;4559343;31;20063;-73
2022/12/07 09:54:05;;;;;;;;;;;18.90;63.60;;;;;;4559386;31;20046;-73
2022/12/07 09:56:31;;;;;;;;;;;18.80;63.50;;;;;;4559552;31;20020;-73
2022/12/07 09:59:01;;;;;;;;;;;18.80;63.50;;;;;;4559487;31;20028;-73
2022/12/07 10:01:31;;;;;;;;;;;18.80;63.50;;;;;;4551260;31;20181;-73
2022/12/07 10:04:11;;;;;;;;;;;18.80;63.50;;;;;;4548956;31;20112;-73
2022/12/07 10:06:37;;;;;;;;;;;18.80;63.60;;;;;;4533676;31;20050;-74
2022/12/07 10:09:08;;;;;;;;;;;18.80;63.50;;;;;;4534122;31;20031;-76
2022/12/07 10:11:34;;;;;;;;;;;18.90;63.60;;;;;;4548668;31;20027;-78
2022/12/07 10:14:11;;;;;;;;;;;18.80;63.50;;;;;;4537039;31;20032;-76
2022/12/07 10:16:39;;;;;;;;;;;18.80;63.50;;;;;;4548925;31;20027;-76
2022/12/07 10:19:18;;;;;;;;;;;18.80;63.60;;;;;;4533765;31;20093;-81
2022/12/07 10:21:59;;;;;;;;;;;18.80;63.60;;;;;;4548425;31;20553;-84
2022/12/07 10:24:25;;;;;;;;;;;18.80;63.70;;;;;;4535042;31;20362;-78
2022/12/07 10:26:51;;;;;;;;;;;18.90;63.80;;;;;;4526816;31;20069;-78
2022/12/07 10:29:20;;;;;;;;;;;18.90;63.90;;;;;;4536798;31;20068;-77
2022/12/07 10:31:48;;;;;;;;;;;18.90;63.90;;;;;;4536170;31;20024;-76
2022/12/07 10:34:34;;;;;;;;;;;18.90;63.90;;;;;;4525091;31;20186;-80
2022/12/07 10:37:13;;;;;;;;;;;18.90;64.00;;;;;;4532751;31;20135;-75
2022/12/07 10:39:42;;;;;;;;;;;18.80;64.00;;;;;;4547147;31;20154;-75
2022/12/07 10:42:15;;;;;;;;;;;18.80;64.10;;;;;;4548394;31;20079;-79
2022/12/07 10:44:42;;;;;;;;;;;18.80;64.20;;;;;;4546527;31;20141;-76
2022/12/07 10:47:28;;;;;;;;;;;18.80;64.30;;;;;;4547992;31;20038;-79
2022/12/07 10:50:07;;;;;;;;;;;18.80;64.30;;;;;;4547285;31;20020;-76
2022/12/07 10:52:51;;;;;;;;;;;18.80;64.30;;;;;;4531015;31;20158;-82
2022/12/07 10:55:18;;;;;;;;;;;18.80;64.40;;;;;;4533323;31;20028;-79
2022/12/07 10:57:50;;;;;;;;;;;18.80;64.40;;;;;;4545450;31;20404;-81
2022/12/07 11:00:20;;;;;;;;;;;18.80;64.50;;;;;;4531244;31;20090;-76
2022/12/07 11:02:59;;;;;;;;;;;18.80;64.50;;;;;;4530946;31;20036;-77
2022/12/07 11:05:28;;;;;;;;;;;18.80;64.60;;;;;;4547190;31;20044;-74
2022/12/07 11:08:12;;;;;;;;;;;18.80;64.70;;;;;;4530588;31;20052;-76
2022/12/07 11:10:54;;;;;;;;;;;18.80;64.80;;;;;;4531793;31;20043;-76
2022/12/07 11:13:37;;;;;;;;;;;18.80;64.80;;;;;;4546061;31;20164;-76
2022/12/07 11:16:02;;;;;;;;;;;18.80;64.90;;;;;;4547076;31;20032;-76
2022/12/07 11:18:50;;;;;;;;;;;18.80;64.90;;;;;;4546968;31;20034;-73
2022/12/07 11:21:19;;;;;;;;;;;18.80;64.90;;;;;;4531772;31;20044;-76
2022/12/07 11:23:48;;;;;;;;;;;18.80;65.00;;;;;;4530079;31;20035;-74
2022/12/07 11:26:32;;;;;;;;;;;18.80;65.10;;;;;;4547127;31;20043;-74
2022/12/07 11:29:06;;;;;;;;;;;18.80;65.00;;;;;;4547411;31;20027;-75
2022/12/07 11:31:35;;;;;;;;;;;18.80;65.10;;;;;;4524568;31;20032;-74
2022/12/07 11:34:04;;;;;;;;;;;18.80;65.10;;;;;;4530885;31;20082;-78
2022/12/07 11:36:41;;;;;;;;;;;18.80;65.20;;;;;;4527700;31;20465;-79
2022/12/07 11:39:26;;;;;;;;;;;18.70;65.10;;;;;;4529413;31;20079;-76
2022/12/07 11:41:55;;;;;;;;;;;18.70;65.10;;;;;;4546502;31;20169;-76
2022/12/07 11:44:26;;;;;;;;;;;18.80;65.20;;;;;;4544965;31;20400;-75
2022/12/07 11:47:19;;;;;;;;;;;18.80;65.10;;;;;;4546214;31;20044;-75
2022/12/07 11:49:47;;;;;;;;;;;18.80;65.10;;;;;;4511420;31;20097;-73
2022/12/07 11:52:20;;;;;;;;;;;18.80;65.20;;;;;;4545505;31;20080;-74
2022/12/07 11:54:48;;;;;;;;;;;18.80;65.20;;;;;;4530080;31;20040;-76
2022/12/07 11:57:19;;;;;;;;;;;18.80;65.10;;;;;;4545796;31;20039;-76
2022/12/07 11:59:50;;;;;;;;;;;18.80;65.20;;;;;;4546116;31;20076;-77
2022/12/07 12:02:26;;;;;;;;;;;18.80;65.20;;;;;;4545909;31;20036;-77
2022/12/07 12:04:58;;;;;;;;;;;18.80;65.20;;;;;;4545846;31;20150;-75
2022/12/07 12:07:25;;;;;;;;;;;18.80;65.30;;;;;;4530545;31;20039;-76
2022/12/07 12:09:53;;;;;;;;;;;18.80;65.40;;;;;;4531200;31;20027;-74
2022/12/07 12:12:19;;;;;;;;;;;18.80;65.40;;;;;;4545784;31;20081;-75
2022/12/07 12:15:00;;;;;;;;;;;18.80;65.40;;;;;;4543686;31;20052;-75
2022/12/07 12:17:25;;;;;;;;;;;18.80;65.40;;;;;;4543474;31;20054;-76
2022/12/07 12:19:54;;;;;;;;;;;18.80;65.40;;;;;;4542392;31;20458;-76
2022/12/07 12:22:21;;;;;;;;;;;18.80;65.40;;;;;;4542887;31;20142;-75
2022/12/07 12:24:50;;;;;;;;;;;18.80;65.40;;;;;;4530152;31;20036;-76
2022/12/07 12:27:19;;;;;;;;;;;18.80;65.50;;;;;;4543835;31;20040;-77
2022/12/07 12:29:51;;;;;;;;;;;18.80;65.40;;;;;;4545399;31;20474;-77
2022/12/07 12:32:20;;;;;;;;;;;18.80;65.50;;;;;;4542003;31;20469;-76
2022/12/07 12:35:04;;;;;;;;;;;18.80;65.50;;;;;;4497870;31;23511;-76
2022/12/07 12:37:33;;;;;;;;;;;18.80;65.50;;;;;;4523516;31;20020;-76
2022/12/07 12:40:14;;;;;;;;;;;18.80;65.50;;;;;;4513530;31;20021;-77
2022/12/07 12:42:47;;;;;;;;;;;18.80;65.50;;;;;;4512886;31;20086;-74
2022/12/07 12:45:24;;;;;;;;;;;18.80;65.50;;;;;;4514017;31;20182;-74
2022/12/07 12:48:00;;;;;;;;;;;18.80;65.50;;;;;;4512797;31;20044;-74
2022/12/07 12:50:27;;;;;;;;;;;18.80;65.50;;;;;;4519185;31;20050;-74
2022/12/07 12:52:56;;;;;;;;;;;18.80;65.50;;;;;;4514020;31;20400;-74
2022/12/07 12:55:29;;;;;;;;;;;18.80;65.40;;;;;;4513043;31;20049;-73
2022/12/07 12:58:14;;;;;;;;;;;18.80;65.40;;;;;;4513890;31;20036;-74
2022/12/07 13:00:40;;;;;;;;;;;18.80;65.40;;;;;;4513461;31;20032;-75
2022/12/07 13:03:20;;;;;;;;;;;18.80;65.40;;;;;;4512583;31;20574;-77
2022/12/07 13:05:46;;;;;;;;;;;18.80;65.40;;;;;;4511449;31;20117;-78
2022/12/07 13:08:14;;;;;;;;;;;18.90;65.60;;;;;;4511270;31;20066;-77
2022/12/07 13:10:42;;;;;;;;;;;18.90;65.50;;;;;;4508372;31;20158;-76
2022/12/07 13:13:10;;;;;;;;;;;18.90;65.60;;;;;;4511162;31;20045;-74
2022/12/07 13:15:36;;;;;;;;;;;18.90;65.60;;;;;;4511108;31;20076;-77
2022/12/07 13:18:15;;;;;;;;;;;18.90;65.50;;;;;;4510793;31;20045;-75
2022/12/07 13:21:00;;;;;;;;;;;18.90;65.50;;;;;;4509288;31;20029;-75
2022/12/07 13:23:31;;;;;;;;;;;18.90;65.60;;;;;;4510352;31;20043;-77
2022/12/07 13:26:09;;;;;;;;;;;18.90;65.60;;;;;;4510084;31;20094;-77
2022/12/07 13:28:37;;;;;;;;;;;18.90;65.70;;;;;;4511138;31;20634;-76
2022/12/07 13:31:03;;;;;;;;;;;18.90;65.70;;;;;;4511220;31;20086;-74
2022/12/07 13:33:29;;;;;;;;;;;18.90;65.80;;;;;;4523323;31;20032;-76
2022/12/07 13:35:56;;;;;;;;;;;18.90;65.80;;;;;;4512238;31;20489;-74
2022/12/07 13:38:29;;;;;;;;;;;18.90;65.70;;;;;;4526086;31;20032;-74
2022/12/07 13:41:03;;;;;;;;;;;19.00;65.70;;;;;;4514043;31;20041;-75
2022/12/07 13:43:28;;;;;;;;;;;19.00;65.50;;;;;;4515956;31;20035;-75
2022/12/07 13:45:58;;;;;;;;;;;19.10;65.40;;;;;;4511532;31;20048;-77
2022/12/07 13:48:32;;;;;;;;;;;19.20;65.20;;;;;;4523164;31;20054;-75
2022/12/07 13:50:58;;;;;;;;;;;19.20;65.10;;;;;;4504681;31;20038;-74
2022/12/07 13:53:24;;;;;;;;;;;19.20;65.00;;;;;;4506867;31;20082;-79
2022/12/07 13:55:50;;;;;;;;;;;19.30;64.90;;;;;;4514054;31;20215;-75
2022/12/07 13:58:16;;;;;;;;;;;19.30;64.80;;;;;;4525847;31;20063;-75
2022/12/07 14:00:43;;;;;;;;;;;19.40;64.80;;;;;;4512938;31;20466;-75
2022/12/07 14:03:11;;;;;;;;;;;19.40;64.80;;;;;;4513639;31;20032;-74
2022/12/07 14:05:38;;;;;;;;;;;19.40;64.80;;;;;;4527730;31;20036;-75
2022/12/07 14:08:24;;;;;;;;;;;19.40;64.70;;;;;;4513643;31;20043;-74
2022/12/07 14:10:50;;;;;;;;;;;19.40;64.70;;;;;;4513477;31;20094;-75
2022/12/07 14:13:22;;;;;;;;;;;19.40;64.70;;;;;;4526456;31;20033;-74
2022/12/07 14:15:49;;;;;;;;;;;19.40;64.70;;;;;;4514096;31;20076;-75
2022/12/07 14:18:36;;;;;;;;;;;19.40;64.70;;;;;;4526257;31;20422;-76
2022/12/07 14:21:03;;;;;;;;;;;19.40;64.70;;;;;;4526610;31;20088;-77
2022/12/07 14:23:28;;;;;;;;;;;19.50;64.80;;;;;;4514510;31;20041;-79
2022/12/07 14:26:04;;;;;;;;;;;19.40;64.70;;;;;;4499788;31;20029;-76
2022/12/07 14:28:31;;;;;;;;;;;19.50;64.80;;;;;;4512967;31;20047;-76